Time;durP1;ratioP1;P1;durP2;ratioP2;P2;SDS_P1;SDS_P2;PMS_P1;PMS_P2;Temp;Humidity;BMP_temperature;BMP_pressure;BME280_temperature;BME280_humidity;BME280_pressure;Samples;Min_cycle;Max_cycle;Signal;HPM_P1;HPM_P2
2021/04/07 02:10:15;;;;;;;10.30;1.70;;;;;;;4.53;62.09;100178.56;4325047;32;30714;-46
2021/04/07 02:12:42;;;;;;;11.15;2.00;;;;;;;4.69;61.81;100175.19;4386054;32;20286;-46
2021/04/07 02:15:11;;;;;;;5.75;1.08;;;;;;;4.38;62.43;100178.56;4515151;31;20556;-46
2021/04/07 02:17:38;;;;;;;4.15;1.25;;;;;;;4.15;62.89;100184.91;4521961;31;20236;-47
2021/04/07 02:20:06;;;;;;;2.30;1.55;;;;;;;4.21;63.30;100181.81;4519705;31;20285;-46
2021/04/07 02:22:32;;;;;;;5.78;0.82;;;;;;;4.10;63.80;100192.25;4520508;31;20271;-48
2021/04/07 02:24:59;;;;;;;6.35;1.45;;;;;;;4.17;63.80;100193.53;4531134;31;20259;-47
2021/04/07 02:27:27;;;;;;;14.23;1.88;;;;;;;4.52;62.58;100196.34;4536297;31;20228;-46
2021/04/07 02:29:55;;;;;;;11.50;2.20;;;;;;;4.58;62.83;100205.22;4535242;31;20271;-48
2021/04/07 02:32:23;;;;;;;11.90;2.72;;;;;;;4.67;62.27;100202.31;4536178;31;20241;-47
2021/04/07 02:34:50;;;;;;;43.45;2.03;;;;;;;4.79;61.72;100206.38;4535652;31;20249;-46
2021/04/07 02:37:17;;;;;;;12.65;2.03;;;;;;;4.83;62.24;100198.94;4536337;31;20225;-47
2021/04/07 02:39:44;;;;;;;9.38;1.50;;;;;;;4.42;63.99;100193.25;4537083;31;20587;-46
2021/04/07 02:42:13;;;;;;;8.20;2.17;;;;;;;4.45;64.61;100205.31;4535923;31;20245;-46
2021/04/07 02:44:41;;;;;;;3.72;2.47;;;;;;;4.22;65.05;100204.00;4534987;31;20253;-48
2021/04/07 02:47:08;;;;;;;11.50;2.50;;;;;;;4.19;65.33;100203.03;4536283;31;20221;-46
2021/04/07 02:49:35;;;;;;;10.00;1.50;;;;;;;4.33;65.04;100197.84;4535490;31;20257;-46
2021/04/07 02:52:01;;;;;;;12.57;2.10;;;;;;;4.50;64.12;100195.41;4535687;31;20555;-46
2021/04/07 02:54:28;;;;;;;7.00;1.42;;;;;;;4.46;63.85;100194.31;4534865;31;20260;-46
2021/04/07 02:56:55;;;;;;;18.15;2.05;;;;;;;4.56;63.61;100203.41;4536212;31;20222;-46
2021/04/07 02:59:22;;;;;;;5.95;1.35;;;;;;;4.18;64.40;100201.28;4535052;31;20317;-48
2021/04/07 03:01:49;;;;;;;11.15;2.45;;;;;;;4.44;64.23;100198.47;4535571;31;20332;-46
2021/04/07 03:04:16;;;;;;;6.00;1.30;;;;;;;4.35;63.71;100193.69;4535104;31;20298;-46
2021/04/07 03:06:43;;;;;;;6.07;1.55;;;;;;;4.11;64.51;100193.16;4535966;31;20231;-47
2021/04/07 03:09:10;;;;;;;11.95;1.60;;;;;;;4.44;63.49;100189.13;4596512;30;20244;-46
2021/04/07 03:11:37;;;;;;;4.05;1.20;;;;;;;4.08;63.35;100198.97;4700529;30;20246;-46
2021/04/07 03:14:05;;;;;;;20.38;2.42;;;;;;;4.22;63.72;100207.44;4798472;29;20258;-49
2021/04/07 03:16:33;;;;;;;11.48;1.27;;;;;;;4.08;63.10;100200.63;4808685;29;20210;-47
2021/04/07 03:19:00;;;;;;;11.77;2.50;;;;;;;4.02;64.09;100198.59;4804823;29;20242;-46
2021/04/07 03:21:27;;;;;;;4.75;1.25;;;;;;;4.14;63.61;100201.88;4808123;29;20234;-46
2021/04/07 03:23:53;;;;;;;20.05;2.90;;;;;;;4.36;63.05;100203.13;4807459;29;20262;-46
2021/04/07 03:26:20;;;;;;;10.65;1.90;;;;;;;4.17;63.36;100198.63;4808297;29;20320;-46
2021/04/07 03:28:47;;;;;;;10.70;1.65;;;;;;;4.24;63.04;100200.75;4807340;29;20246;-46
2021/04/07 03:31:13;;;;;;;10.70;2.00;;;;;;;4.27;63.08;100200.03;4808221;29;20585;-46
2021/04/07 03:33:40;;;;;;;7.90;1.60;;;;;;;4.17;63.27;100196.94;4807653;29;20248;-46
2021/04/07 03:36:08;;;;;;;5.90;1.60;;;;;;;3.88;63.93;100200.31;4808165;29;20640;-47
2021/04/07 03:38:35;;;;;;;7.95;1.83;;;;;;;4.01;64.02;100199.38;4807373;29;20244;-46
2021/04/07 03:41:03;;;;;;;2.33;0.70;;;;;;;3.97;63.86;100205.09;4808215;29;20230;-46
2021/04/07 03:43:29;;;;;;;10.60;1.45;;;;;;;3.90;64.14;100199.63;4807310;29;20214;-46
2021/04/07 03:45:57;;;;;;;5.63;1.63;;;;;;;3.58;64.16;100211.31;4808114;29;20226;-46
2021/04/07 03:48:25;;;;;;;3.97;1.17;;;;;;;3.68;64.27;100217.00;4807682;29;20218;-47
2021/04/07 03:50:52;;;;;;;2.17;0.70;;;;;;;3.53;64.66;100217.81;4808109;29;20214;-47
2021/04/07 03:53:20;;;;;;;18.95;1.42;;;;;;;3.53;64.58;100205.03;4807218;29;20214;-46
2021/04/07 03:55:48;;;;;;;12.70;1.45;;;;;;;3.63;64.52;100215.03;4808170;29;20540;-47
2021/04/07 03:58:15;;;;;;;4.00;1.00;;;;;;;3.65;64.48;100213.44;4807065;29;20304;-47
2021/04/07 04:00:42;;;;;;;12.60;1.98;;;;;;;3.41;64.62;100212.84;4807720;29;20273;-46
2021/04/07 04:03:08;;;;;;;5.93;1.80;;;;;;;3.45;64.74;100213.91;4807997;29;20212;-46
2021/04/07 04:05:35;;;;;;;8.57;1.70;;;;;;;3.68;64.11;100222.09;4807298;29;20561;-46
2021/04/07 04:08:02;;;;;;;7.32;2.03;;;;;;;3.58;64.25;100221.53;4803135;29;20225;-46
2021/04/07 04:10:30;;;;;;;14.55;1.65;;;;;;;3.67;63.78;100222.88;4831009;29;20247;-46
2021/04/07 04:12:57;;;;;;;6.65;1.30;;;;;;;3.72;63.64;100224.03;4916105;29;20297;-47
2021/04/07 04:15:24;;;;;;;6.90;1.48;;;;;;;3.88;63.03;100219.09;4936696;29;20251;-46
2021/04/07 04:17:50;;;;;;;4.10;1.30;;;;;;;3.57;63.60;100227.41;4918983;29;20218;-47
2021/04/07 04:20:18;;;;;;;11.20;1.55;;;;;;;3.57;63.67;100237.63;4917843;29;20328;-48
2021/04/07 04:22:45;;;;;;;7.10;1.58;;;;;;;3.25;64.70;100231.41;4919002;29;20230;-48
2021/04/07 04:25:14;;;;;;;2.95;0.82;;;;;;;3.41;64.67;100232.34;4917647;29;20333;-48
2021/04/07 04:27:41;;;;;;;7.65;1.88;;;;;;;3.86;63.12;100232.53;4918887;29;20213;-46
2021/04/07 04:30:10;;;;;;;12.18;2.50;;;;;;;3.73;63.61;100228.34;4917106;29;20242;-46
2021/04/07 04:32:37;;;;;;;8.82;2.00;;;;;;;3.59;63.67;100233.50;4921621;29;20316;-47
2021/04/07 04:35:04;;;;;;;11.98;2.50;;;;;;;3.50;63.86;100232.94;4921769;29;20539;-48
2021/04/07 04:37:31;;;;;;;10.88;1.40;;;;;;;3.48;63.74;100244.69;4922545;29;20247;-45
2021/04/07 04:39:58;;;;;;;5.85;1.60;;;;;;;3.61;63.29;100239.59;4921007;29;20242;-46
2021/04/07 04:42:24;;;;;;;85.80;3.10;;;;;;;3.49;63.58;100246.47;4921915;29;20320;-46
2021/04/07 04:44:52;;;;;;;12.98;2.88;;;;;;;3.29;63.94;100257.97;4920874;29;20241;-48
2021/04/07 04:47:19;;;;;;;10.68;2.10;;;;;;;3.40;64.64;100253.53;4922385;29;20225;-46
2021/04/07 04:49:50;;;;;;;2.20;0.80;;;;;;;3.25;64.88;100256.91;4918426;29;20229;-46
2021/04/07 04:52:16;;;;;;;6.80;1.63;;;;;;;3.25;64.72;100259.44;4921621;29;20739;-46
2021/04/07 04:54:43;;;;;;;13.70;1.45;;;;;;;3.56;64.09;100256.28;4920842;29;20700;-46
2021/04/07 04:57:10;;;;;;;6.20;2.05;;;;;;;3.24;64.81;100250.03;4922005;29;20212;-47
2021/04/07 04:59:36;;;;;;;6.50;1.52;;;;;;;3.32;64.69;100259.06;4920829;29;20237;-47
2021/04/07 05:02:04;;;;;;;8.82;1.80;;;;;;;3.41;64.94;100260.41;4921419;29;20230;-45
2021/04/07 05:04:31;;;;;;;8.20;1.20;;;;;;;3.44;64.83;100260.63;4921188;29;20242;-47
2021/04/07 05:06:57;;;;;;;1.70;0.65;;;;;;;3.23;65.32;100276.34;4921803;29;20216;-47
2021/04/07 05:09:24;;;;;;;5.43;1.25;;;;;;;3.45;64.79;100263.28;4928218;29;20238;-48
2021/04/07 05:11:52;;;;;;;14.02;2.10;;;;;;;3.45;64.79;100264.94;4954726;28;20254;-46
2021/04/07 05:14:19;;;;;;;3.85;1.17;;;;;;;3.54;64.83;100260.38;4992236;28;20261;-46
2021/04/07 05:16:45;;;;;;;5.18;1.52;;;;;;;3.28;64.82;100276.63;4988020;28;20302;-49
2021/04/07 05:19:13;;;;;;;11.32;2.20;;;;;;;3.51;64.53;100275.50;4978384;28;20322;-45
2021/04/07 05:21:39;;;;;;;3.75;1.35;;;;;;;3.50;64.88;100273.75;4978673;28;20646;-47
2021/04/07 05:24:08;;;;;;;21.88;2.22;;;;;;;3.55;64.86;100281.69;4977572;28;20455;-46
2021/04/07 05:26:35;;;;;;;9.38;2.03;;;;;;;3.63;64.50;100276.28;4978882;28;20715;-47
2021/04/07 05:29:01;;;;;;;9.70;1.92;;;;;;;3.64;64.16;100278.03;4977789;28;20251;-47
2021/04/07 05:31:28;;;;;;;5.78;3.20;;;;;;;3.31;65.67;100275.16;4978693;28;20507;-51
2021/04/07 05:33:55;;;;;;;4.00;1.02;;;;;;;3.60;65.18;100280.31;4977911;28;20242;-51
2021/04/07 05:36:22;;;;;;;2.58;1.20;;;;;;;3.31;65.58;100281.91;4978854;28;20207;-49
2021/04/07 05:38:50;;;;;;;8.75;2.20;;;;;;;3.70;65.04;100284.31;4977384;28;20323;-46
2021/04/07 05:41:17;;;;;;;9.75;1.10;;;;;;;3.72;64.71;100280.19;4978520;28;20224;-48
2021/04/07 05:43:49;;;;;;;19.85;2.80;;;;;;;3.49;65.69;100283.06;4977489;28;20232;-47
2021/04/07 05:46:16;;;;;;;6.35;1.63;;;;;;;3.55;65.36;100284.22;4978440;28;20223;-47
2021/04/07 05:48:42;;;;;;;10.40;2.83;;;;;;;3.57;65.80;100286.09;4977807;28;20304;-47
2021/04/07 05:51:10;;;;;;;3.15;1.15;;;;;;;3.77;65.22;100294.09;4978184;28;20576;-47
2021/04/07 05:53:37;;;;;;;5.25;0.95;;;;;;;3.73;64.91;100287.03;4977146;28;20334;-46
2021/04/07 05:56:24;;;;;;;4.20;1.50;;;;;;;3.76;65.01;100294.91;4978269;28;20204;-47
2021/04/07 05:58:51;;;;;;;6.28;2.10;;;;;;;3.55;65.20;100299.53;4977166;28;20368;-46
2021/04/07 06:01:18;;;;;;;3.33;1.27;;;;;;;3.80;65.34;100299.41;4978024;28;20517;-46
2021/04/07 06:03:47;;;;;;;4.70;1.23;;;;;;;3.62;65.89;100302.59;4977480;28;20243;-46
2021/04/07 06:06:14;;;;;;;10.73;2.88;;;;;;;3.75;65.54;100295.69;4977990;28;20255;-46
2021/04/07 06:08:41;;;;;;;8.35;3.17;;;;;;;3.93;64.81;100301.03;4980597;28;20249;-47
2021/04/07 06:11:08;;;;;;;9.55;1.70;;;;;;;3.99;64.57;100305.66;5010830;28;20230;-46
2021/04/07 06:13:35;;;;;;;7.22;0.98;;;;;;;3.60;66.18;100309.25;5015809;28;20254;-46
2021/04/07 06:16:02;;;;;;;7.88;1.73;;;;;;;3.85;65.13;100315.88;5016891;28;20203;-47
2021/04/07 06:18:28;;;;;;;4.90;1.27;;;;;;;3.85;65.38;100315.00;5016237;28;20253;-47
2021/04/07 06:20:55;;;;;;;8.13;3.40;;;;;;;4.07;65.06;100313.75;5016496;28;20203;-47
2021/04/07 06:23:21;;;;;;;9.65;1.95;;;;;;;3.74;65.88;100319.44;5015637;28;20596;-46
2021/04/07 06:25:49;;;;;;;6.50;1.88;;;;;;;3.81;65.77;100328.34;5016770;28;20244;-46
2021/04/07 06:28:17;;;;;;;5.55;1.35;;;;;;;3.77;65.70;100322.19;5015606;28;20286;-46
2021/04/07 06:30:45;;;;;;;5.55;1.63;;;;;;;3.77;65.24;100327.28;5016328;28;20517;-46
2021/04/07 06:33:19;;;;;;;4.25;1.52;;;;;;;3.79;65.77;100323.16;5016023;28;20210;-48
2021/04/07 06:35:47;;;;;;;4.88;1.15;;;;;;;3.90;65.15;100326.38;5016873;28;20585;-46
2021/04/07 06:38:14;;;;;;;4.60;1.60;;;;;;;3.94;64.84;100332.56;5015653;28;20199;-47
2021/04/07 06:40:41;;;;;;;3.25;1.00;;;;;;;3.69;65.31;100328.47;5016182;28;20230;-46
2021/04/07 06:43:08;;;;;;;8.70;2.20;;;;;;;3.31;66.88;100333.81;5016604;28;20206;-47
2021/04/07 06:45:38;;;;;;;3.45;1.42;;;;;;;3.92;65.70;100330.81;5015187;28;20309;-45
2021/04/07 06:48:05;;;;;;;4.80;1.55;;;;;;;3.67;65.80;100322.38;5016632;28;20281;-46
2021/04/07 06:50:32;;;;;;;5.57;2.40;;;;;;;4.04;64.49;100329.78;5015309;28;20547;-47
2021/04/07 06:53:00;;;;;;;10.68;1.95;;;;;;;4.30;64.30;100330.47;5016424;28;20223;-45
2021/04/07 06:55:27;;;;;;;7.88;2.80;;;;;;;4.24;64.40;100330.09;5014609;28;20242;-46
2021/04/07 06:57:54;;;;;;;7.60;1.98;;;;;;;4.04;64.60;100329.78;5016278;28;20199;-46
2021/04/07 07:00:23;;;;;;;5.70;1.45;;;;;;;4.38;63.22;100334.38;5014183;28;20249;-46
2021/04/07 07:02:59;;;;;;;8.23;2.50;;;;;;;4.35;63.50;100331.63;5017270;28;20258;-46
2021/04/07 07:05:27;;;;;;;11.75;2.83;;;;;;;4.04;64.34;100342.53;5024450;28;20288;-46
2021/04/07 07:07:59;;;;;;;11.25;3.40;;;;;;;4.23;64.32;100339.44;5015545;28;20199;-46
2021/04/07 07:10:36;;;;;;;18.25;1.88;;;;;;;4.31;64.19;100343.34;5022634;28;20264;-46
2021/04/07 07:13:03;;;;;;;9.40;2.10;;;;;;;4.11;64.87;100331.91;5035289;28;20218;-47
2021/04/07 07:15:31;;;;;;;4.68;1.80;;;;;;;3.84;65.00;100328.56;5034225;28;20317;-47
2021/04/07 07:17:58;;;;;;;4.10;1.40;;;;;;;3.78;65.30;100341.81;5035637;28;20321;-46
2021/04/07 07:20:29;;;;;;;15.45;5.55;;;;;;;4.01;66.63;100339.81;5034331;28;20242;-47
2021/04/07 07:22:56;;;;;;;14.55;5.85;;;;;;;4.14;65.50;100342.31;5035599;28;20240;-48
2021/04/07 07:25:24;;;;;;;21.13;7.78;;;;;;;4.44;64.23;100337.31;5034204;28;20244;-47
2021/04/07 07:27:59;;;;;;;6.10;2.80;;;;;;;4.21;64.55;100347.81;5035566;28;20253;-46
2021/04/07 07:30:36;;;;;;;9.68;2.72;;;;;;;4.29;65.49;100344.03;5033932;28;20263;-46
2021/04/07 07:33:13;;;;;;;8.15;2.17;;;;;;;4.37;64.97;100352.16;5035385;28;20309;-48
2021/04/07 07:35:39;;;;;;;22.58;6.97;;;;;;;4.04;65.57;100345.09;5015168;28;20651;-49
2021/04/07 07:38:06;;;;;;;4.93;1.80;;;;;;;4.53;64.37;100342.09;5015711;28;20209;-47
2021/04/07 07:40:33;;;;;;;22.77;6.85;;;;;;;4.38;63.80;100347.16;5023997;28;20234;-47
2021/04/07 07:43:00;;;;;;;18.75;7.75;;;;;;;4.45;64.88;100341.63;5035339;28;20542;-46
2021/04/07 07:45:32;;;;;;;8.20;2.67;;;;;;;4.34;65.30;100342.66;5033966;28;20249;-46
2021/04/07 07:48:01;;;;;;;6.22;2.40;;;;;;;4.60;64.40;100338.22;5035201;28;20297;-47
2021/04/07 07:50:35;;;;;;;4.28;1.45;;;;;;;4.87;64.22;100343.16;5049296;28;20241;-46
2021/04/07 07:53:17;;;;;;;13.05;4.38;;;;;;;5.10;62.99;100346.19;5034976;28;20234;-46
2021/04/07 07:55:46;;;;;;;49.47;14.65;;;;;;;4.83;63.39;100357.44;5034903;28;20229;-46
2021/04/07 07:58:13;;;;;;;17.75;5.70;;;;;;;4.76;64.69;100350.22;5034277;28;20202;-47
2021/04/07 08:00:40;;;;;;;7.13;3.90;;;;;;;4.86;63.44;100356.75;5014902;28;20253;-46
2021/04/07 08:03:12;;;;;;;3.30;1.83;;;;;;;4.58;63.52;100360.25;5015500;28;20207;-46
2021/04/07 08:05:40;;;;;;;8.80;3.28;;;;;;;4.73;64.34;100358.56;5015057;28;20240;-47
2021/04/07 08:08:08;;;;;;;7.57;2.90;;;;;;;5.05;63.71;100353.59;5019101;28;20210;-46
2021/04/07 08:10:39;;;;;;;6.45;3.83;;;;;;;4.71;64.21;100352.50;4998955;28;20234;-45
2021/04/07 08:13:09;;;;;;;11.05;4.35;;;;;;;4.69;64.45;100358.31;5002343;28;20214;-47
2021/04/07 08:15:38;;;;;;;9.50;3.10;;;;;;;4.79;64.67;100357.19;5020365;28;20258;-46
2021/04/07 08:18:08;;;;;;;7.97;3.30;;;;;;;4.95;64.01;100352.19;5019264;28;20209;-45
2021/04/07 08:20:37;;;;;;;7.32;2.63;;;;;;;4.97;63.68;100357.41;5017779;28;20674;-46
2021/04/07 08:23:06;;;;;;;7.97;3.72;;;;;;;4.82;64.37;100348.00;5019001;28;20230;-48
2021/04/07 08:25:33;;;;;;;9.05;3.70;;;;;;;4.00;66.44;100373.78;5017575;28;20238;-46
2021/04/07 08:28:00;;;;;;;9.00;3.03;;;;;;;4.27;66.46;100364.41;5018856;28;20210;-45
2021/04/07 08:30:28;;;;;;;14.00;3.05;;;;;;;4.61;65.47;100365.53;5017353;28;20250;-46
2021/04/07 08:32:55;;;;;;;12.73;4.40;;;;;;;4.67;65.24;100362.47;5021885;28;20221;-46
2021/04/07 08:35:23;;;;;;;6.70;2.35;;;;;;;4.49;65.19;100359.69;5020128;28;20674;-49
2021/04/07 08:37:59;;;;;;;4.63;1.75;;;;;;;4.69;65.21;100366.88;5018876;28;20199;-45
2021/04/07 08:40:37;;;;;;;11.75;3.10;;;;;;;5.29;63.65;100367.69;5017233;28;20238;-45
2021/04/07 08:43:04;;;;;;;7.18;1.55;;;;;;;4.68;64.97;100367.66;5018670;28;20296;-45
2021/04/07 08:45:37;;;;;;;10.95;1.40;;;;;;;4.73;64.88;100366.25;5017404;28;20235;-47
2021/04/07 08:48:07;;;;;;;4.65;1.40;;;;;;;5.10;64.98;100366.63;5017943;28;20211;-46
2021/04/07 08:50:34;;;;;;;2.72;1.75;;;;;;;5.10;64.38;100364.09;5017003;28;20249;-45
2021/04/07 08:53:11;;;;;;;2.10;1.08;;;;;;;4.51;65.94;100378.56;5018552;28;20244;-47
2021/04/07 08:55:42;;;;;;;3.40;1.08;;;;;;;4.88;65.79;100367.06;5018313;28;20226;-46
2021/04/07 08:58:10;;;;;;;6.22;1.92;;;;;;;4.96;65.08;100376.06;5018432;28;20235;-46
2021/04/07 09:00:38;;;;;;;6.10;1.90;;;;;;;5.52;64.09;100369.88;5017592;28;20310;-46
2021/04/07 09:03:15;;;;;;;3.83;1.90;;;;;;;5.06;65.23;100374.91;5018292;28;20209;-47
2021/04/07 09:05:44;;;;;;;4.03;1.73;;;;;;;5.38;64.56;100373.31;5005728;28;20257;-46
2021/04/07 09:08:17;;;;;;;3.80;1.60;;;;;;;5.21;65.17;100373.25;4998085;28;20203;-52
2021/04/07 09:10:45;;;;;;;7.75;2.38;;;;;;;5.64;64.34;100381.59;5017803;28;20231;-46
2021/04/07 09:13:13;;;;;;;6.72;3.00;;;;;;;5.66;64.23;100374.88;5016958;28;20215;-47
2021/04/07 09:15:48;;;;;;;5.80;2.75;;;;;;;5.68;64.36;100386.06;5017879;28;20227;-45
2021/04/07 09:18:17;;;;;;;11.48;1.67;;;;;;;5.32;64.70;100389.22;5016028;28;20288;-45
2021/04/07 09:20:45;;;;;;;6.95;2.55;;;;;;;5.42;64.80;100384.63;5017756;28;20226;-46
2021/04/07 09:23:23;;;;;;;6.88;3.05;;;;;;;5.80;63.80;100383.34;5016996;28;20233;-45
2021/04/07 09:25:52;;;;;;;7.65;2.10;;;;;;;5.70;63.71;100381.06;5017817;28;20235;-46
2021/04/07 09:28:30;;;;;;;4.70;2.15;;;;;;;5.79;63.58;100384.09;5016372;28;20298;-46
2021/04/07 09:31:05;;;;;;;4.05;2.42;;;;;;;5.67;64.16;100376.63;5017585;28;20210;-45
2021/04/07 09:33:32;;;;;;;6.78;2.95;;;;;;;5.91;63.57;100378.78;5017094;28;20242;-45
2021/04/07 09:36:00;;;;;;;8.13;2.70;;;;;;;5.99;63.09;100374.97;5017766;28;20209;-46
2021/04/07 09:38:29;;;;;;;5.43;3.00;;;;;;;6.00;63.31;100379.28;5016625;28;20873;-46
2021/04/07 09:41:07;;;;;;;5.33;1.70;;;;;;;6.00;63.88;100381.84;5017141;28;20203;-45
2021/04/07 09:43:33;;;;;;;3.55;1.50;;;;;;;5.66;64.32;100377.44;5015914;28;20450;-46
2021/04/07 09:46:00;;;;;;;6.78;2.90;;;;;;;5.79;64.63;100377.31;5017473;28;20636;-48
2021/04/07 09:48:48;;;;;;;7.30;3.75;;;;;;;5.87;64.45;100376.84;5016738;28;20290;-46
2021/04/07 09:51:19;;;;;;;6.38;2.35;;;;;;;6.24;64.10;100371.19;5017095;28;20233;-46
2021/04/07 09:54:16;;;;;;;5.15;2.20;;;;;;;5.93;64.63;100388.31;5015657;28;20648;-45
2021/04/07 09:56:54;;;;;;;7.55;4.07;;;;;;;6.13;64.56;100373.19;5017474;28;20203;-46
2021/04/07 09:59:31;;;;;;;11.13;5.10;;;;;;;6.04;64.81;100373.56;5016016;28;20653;-46
2021/04/07 10:01:57;;;;;;;11.17;4.87;;;;;;;6.04;64.30;100373.56;5016832;28;20923;-46
2021/04/07 10:04:25;;;;;;;10.77;3.53;;;;;;;6.37;63.73;100376.97;5016406;28;20456;-45
2021/04/07 10:06:52;;;;;;;7.57;3.50;;;;;;;6.02;64.04;100364.94;5017110;28;20481;-46
2021/04/07 10:09:26;;;;;;;7.47;2.83;;;;;;;6.07;64.13;100366.03;5015346;28;20249;-45
2021/04/07 10:11:53;;;;;;;21.17;6.97;;;;;;;6.72;62.72;100359.97;5016397;28;20774;-47
2021/04/07 10:14:20;;;;;;;6.18;3.20;;;;;;;6.48;63.23;100370.72;5014949;28;20454;-46
2021/04/07 10:16:46;;;;;;;7.63;4.17;;;;;;;6.56;62.89;100358.31;5016943;28;20208;-47
2021/04/07 10:19:13;;;;;;;7.80;3.60;;;;;;;6.57;62.85;100363.50;5015693;28;20935;-47
2021/04/07 10:21:43;;;;;;;6.63;2.37;;;;;;;6.59;62.15;100367.03;5016173;28;20484;-45
2021/04/07 10:24:14;;;;;;;7.97;3.43;;;;;;;6.82;61.83;100359.63;5014969;28;20540;-51
2021/04/07 10:26:42;;;;;;;8.53;2.80;;;;;;;6.65;62.24;100357.91;5016505;28;20839;-52
2021/04/07 10:29:10;;;;;;;8.50;3.53;;;;;;;7.13;60.77;100365.44;5014259;28;20559;-45
2021/04/07 10:31:36;;;;;;;9.90;3.23;;;;;;;6.94;60.25;100346.56;5015399;28;20491;-45
2021/04/07 10:34:10;;;;;;;6.33;3.83;;;;;;;7.78;59.93;100350.53;5015432;28;20527;-47
2021/04/07 10:36:57;;;;;;;8.07;4.37;;;;;;;7.37;60.25;100352.91;5016066;28;20500;-49
2021/04/07 10:39:37;;;;;;;8.57;4.23;;;;;;;7.50;59.35;100344.13;5014179;28;20854;-51
2021/04/07 10:42:12;;;;;;;10.63;5.30;;;;;;;7.62;60.43;100355.75;5015216;28;20492;-48
2021/04/07 10:44:56;;;;;;;4.10;2.00;;;;;;;7.42;60.47;100359.16;5013186;28;20484;-49
2021/04/07 10:47:23;;;;;;;8.53;2.90;;;;;;;7.53;60.72;100354.53;5014883;28;20649;-51
2021/04/07 10:50:02;;;;;;;2.23;0.93;;;;;;;7.25;60.89;100348.06;5013014;28;20452;-50
2021/04/07 10:52:48;;;;;;;;;;;;;;;;;;;;;
2021/04/07 10:55:24;;;;;;;3.90;1.57;;;;;;;7.39;60.44;100356.41;5010914;28;20480;-46
2021/04/07 10:57:53;;;;;;;5.37;2.20;;;;;;;8.11;58.95;100346.91;4996426;28;20435;-46
2021/04/07 11:00:28;;;;;;;5.43;2.27;;;;;;;8.14;58.69;100352.16;4994858;28;20496;-45
2021/04/07 11:02:56;;;;;;;6.50;1.47;;;;;;;8.33;58.22;100342.69;4996452;28;20481;-45
2021/04/07 11:05:28;;;;;;;5.80;3.00;;;;;;;8.62;58.80;100344.00;4995676;28;20486;-47
2021/04/07 11:08:02;;;;;;;4.70;1.93;;;;;;;8.20;58.79;100357.56;4996259;28;20541;-46
2021/04/07 11:10:36;;;;;;;4.30;1.90;;;;;;;8.15;59.33;100360.75;5001630;28;20485;-47
2021/04/07 11:13:05;;;;;;;9.57;4.67;;;;;;;8.17;60.07;100354.88;5015710;28;20519;-49
2021/04/07 11:15:32;;;;;;;14.83;3.47;;;;;;;7.94;60.89;100357.25;4994443;28;20492;-47
2021/04/07 11:17:59;;;;;;;4.07;1.47;;;;;;;8.00;60.78;100358.38;4996112;28;20468;-47
2021/04/07 11:20:29;;;;;;;5.47;2.40;;;;;;;8.21;59.53;100351.63;5003742;28;20492;-47
2021/04/07 11:22:58;;;;;;;15.93;4.73;;;;;;;8.21;60.72;100354.19;5015356;28;20474;-48
2021/04/07 11:25:26;;;;;;;5.03;2.53;;;;;;;8.35;60.53;100354.81;5013542;28;20478;-46
2021/04/07 11:27:57;;;;;;;11.50;4.93;;;;;;;8.59;60.70;100345.56;5015136;28;20460;-49
2021/04/07 11:30:26;;;;;;;10.43;4.80;;;;;;;8.44;60.90;100354.34;5013639;28;20481;-49
2021/04/07 11:32:56;;;;;;;28.27;12.20;;;;;;;8.46;62.15;100362.13;5015320;28;20752;-47
2021/04/07 11:35:47;;;;;;;14.13;5.03;;;;;;;8.34;62.03;100359.88;5015505;28;20949;-47
2021/04/07 11:38:34;;;;;;;4.20;1.93;;;;;;;8.14;63.08;100354.72;5014266;28;20473;-49
2021/04/07 11:46:27;;;;;;;6.23;2.33;;;;;;;8.09;66.80;100351.94;5014606;28;20485;-48
2021/04/07 11:48:54;;;;;;;11.23;4.80;;;;;;;7.92;67.72;100356.31;5014946;28;20455;-47
2021/04/07 11:51:20;;;;;;;11.70;4.50;;;;;;;7.77;67.92;100371.91;5015120;28;20564;-47
2021/04/07 11:53:47;;;;;;;7.00;2.00;;;;;;;7.54;68.57;100361.41;5014187;28;20483;-45
2021/04/07 11:56:14;;;;;;;11.63;6.10;;;;;;;7.92;67.81;100369.16;5015467;28;20458;-46
2021/04/07 11:58:41;;;;;;;5.97;3.07;;;;;;;8.02;67.67;100379.84;5014458;28;20782;-49
2021/04/07 12:01:08;;;;;;;8.23;3.47;;;;;;;8.18;66.73;100377.19;5015014;28;20947;-46
2021/04/07 12:03:36;;;;;;;5.50;2.80;;;;;;;8.46;66.34;100368.13;5014769;28;20476;-47
2021/04/07 12:06:03;;;;;;;13.57;3.60;;;;;;;8.36;67.35;100364.28;5015462;28;20466;-46
2021/04/07 12:08:29;;;;;;;21.57;8.17;;;;;;;8.66;67.38;100365.59;5013871;28;20436;-47
2021/04/07 12:10:59;;;;;;;9.33;2.90;;;;;;;8.69;66.66;100365.72;5015101;28;20884;-47
2021/04/07 12:13:25;;;;;;;6.40;2.67;;;;;;;8.72;66.65;100355.56;5014022;28;20565;-47
2021/04/07 12:15:52;;;;;;;6.93;2.70;;;;;;;8.41;66.97;100358.47;5015401;28;20544;-47
2021/04/07 12:18:19;;;;;;;6.07;2.13;;;;;;;8.60;67.64;100365.31;5014794;28;20523;-48
2021/04/07 12:20:47;;;;;;;5.60;2.47;;;;;;;8.60;67.38;100355.03;5014665;28;20496;-48
2021/04/07 12:23:14;;;;;;;7.93;1.23;;;;;;;7.90;68.13;100360.50;5013939;28;21289;-47
2021/04/07 12:25:42;;;;;;;5.20;2.40;;;;;;;8.48;66.95;100360.50;5015149;28;20492;-47
2021/04/07 12:28:09;;;;;;;8.00;2.10;;;;;;;8.47;66.33;100364.75;5015241;28;20457;-47
2021/04/07 12:30:47;;;;;;;11.73;2.67;;;;;;;8.60;67.46;100365.31;5014462;28;20645;-48
2021/04/07 12:33:15;;;;;;;6.83;2.23;;;;;;;8.69;65.97;100362.25;5014141;28;20461;-49
2021/04/07 12:35:41;;;;;;;12.33;3.10;;;;;;;9.15;64.52;100360.75;5014956;28;20464;-48
2021/04/07 12:38:09;;;;;;;12.43;3.37;;;;;;;9.23;66.37;100345.63;5015088;28;20549;-47
2021/04/07 12:40:36;;;;;;;8.07;2.77;;;;;;;9.36;65.19;100342.72;5014305;28;20462;-49
2021/04/07 12:43:03;;;;;;;13.03;3.73;;;;;;;9.40;63.93;100359.19;5014951;28;20454;-48
2021/04/07 12:45:29;;;;;;;8.33;2.17;;;;;;;8.62;66.45;100379.13;5013519;28;20485;-47
2021/04/07 12:47:56;;;;;;;6.53;1.23;;;;;;;8.22;65.36;100373.94;5015058;28;20576;-47
2021/04/07 12:50:23;;;;;;;9.17;2.13;;;;;;;8.53;65.97;100365.88;5013296;28;20485;-50
2021/04/07 12:52:49;;;;;;;6.13;1.87;;;;;;;8.34;64.29;100368.47;5016186;28;20485;-47
2021/04/07 12:55:17;;;;;;;7.73;1.53;;;;;;;7.73;66.19;100376.84;5017424;28;20892;-48
2021/04/07 12:57:44;;;;;;;3.33;1.30;;;;;;;7.45;67.44;100372.94;5018599;28;20453;-47
2021/04/07 13:00:12;;;;;;;8.07;1.33;;;;;;;7.86;67.47;100362.84;5016606;28;20556;-47
2021/04/07 13:02:39;;;;;;;9.77;1.43;;;;;;;8.17;67.40;100360.03;5017832;28;20969;-47
2021/04/07 13:05:07;;;;;;;8.00;2.30;;;;;;;9.23;65.23;100366.22;5017515;28;20534;-49
2021/04/07 13:07:34;;;;;;;19.10;4.50;;;;;;;9.12;65.10;100355.50;5018182;28;20855;-47
2021/04/07 13:10:01;;;;;;;11.37;2.20;;;;;;;9.11;64.23;100354.59;5017015;28;20786;-47
2021/04/07 13:12:28;;;;;;;10.90;2.23;;;;;;;9.03;63.55;100356.00;5017549;28;20485;-47
2021/04/07 13:14:55;;;;;;;45.97;17.27;;;;;;;9.91;62.98;100361.16;5016998;28;20564;-50
2021/04/07 13:17:22;;;;;;;15.37;3.10;;;;;;;9.97;63.67;100361.41;5018098;28;20458;-46
2021/04/07 13:19:51;;;;;;;10.07;2.50;;;;;;;10.51;62.33;100353.91;5016328;28;20785;-46
2021/04/07 13:22:18;;;;;;;12.53;2.60;;;;;;;10.83;61.51;100349.00;5017421;28;20479;-47
2021/04/07 13:24:45;;;;;;;14.00;2.87;;;;;;;11.78;62.23;100338.22;5016690;28;20488;-48
2021/04/07 13:27:15;;;;;;;10.73;2.30;;;;;;;11.80;58.58;100323.63;5017960;28;20491;-46
2021/04/07 13:29:43;;;;;;;10.63;1.97;;;;;;;11.24;57.21;100337.41;5016581;28;20476;-49
2021/04/07 13:32:10;;;;;;;9.20;2.47;;;;;;;10.47;58.17;100341.72;5017650;28;20793;-46
2021/04/07 13:34:48;;;;;;;20.47;2.70;;;;;;;10.82;58.14;100344.63;5016505;28;20675;-48
2021/04/07 13:37:22;;;;;;;9.73;2.30;;;;;;;11.25;56.02;100340.03;5017990;28;20828;-47
2021/04/07 13:39:54;;;;;;;11.10;2.07;;;;;;;11.71;55.94;100343.19;5016758;28;20476;-46
2021/04/07 13:45:08;;;;;;;15.90;4.27;;;;;;;11.22;52.25;100355.44;5015868;28;20551;-46
2021/04/07 13:47:36;;;;;;;10.67;2.07;;;;;;;11.97;50.91;100337.03;5017674;28;20499;-47
2021/04/07 13:50:03;;;;;;;15.93;3.30;;;;;;;12.27;50.50;100347.41;5015811;28;20507;-46
2021/04/07 13:52:31;;;;;;;15.13;2.97;;;;;;;13.03;50.14;100343.38;5016941;28;20484;-47
2021/04/07 13:54:58;;;;;;;8.47;2.10;;;;;;;12.42;51.50;100357.31;5016158;28;20478;-47
2021/04/07 13:57:28;;;;;;;41.17;15.20;;;;;;;12.02;51.37;100354.44;5016467;28;20461;-47